sensor_id;sensor_type;location;lat;lon;timestamp;P1;durP1;ratioP1;P2;durP2;ratioP2
12976;SDS011;6553;48.412;9.514;2023-05-07T00:00:16;1.60;;;1.45;;
12976;SDS011;6553;48.412;9.514;2023-05-07T00:02:44;1.20;;;1.20;;
12976;SDS011;6553;48.412;9.514;2023-05-07T00:05:10;1.40;;;1.30;;
12976;SDS011;6553;48.412;9.514;2023-05-07T00:07:36;1.55;;;1.30;;
12976;SDS011;6553;48.412;9.514;2023-05-07T00:10:03;1.55;;;1.38;;
12976;SDS011;6553;48.412;9.514;2023-05-07T00:12:31;2.30;;;1.50;;
12976;SDS011;6553;48.412;9.514;2023-05-07T00:15:01;2.72;;;1.20;;
12976;SDS011;6553;48.412;9.514;2023-05-07T00:17:29;1.45;;;1.35;;
12976;SDS011;6553;48.412;9.514;2023-05-07T00:19:55;1.50;;;1.40;;
12976;SDS011;6553;48.412;9.514;2023-05-07T00:22:21;1.60;;;1.50;;
12976;SDS011;6553;48.412;9.514;2023-05-07T00:24:46;1.50;;;1.40;;
12976;SDS011;6553;48.412;9.514;2023-05-07T00:27:12;1.33;;;1.25;;
12976;SDS011;6553;48.412;9.514;2023-05-07T00:29:38;1.58;;;1.48;;
12976;SDS011;6553;48.412;9.514;2023-05-07T00:32:04;1.50;;;1.40;;
12976;SDS011;6553;48.412;9.514;2023-05-07T00:34:30;2.35;;;1.40;;
12976;SDS011;6553;48.412;9.514;2023-05-07T00:36:56;1.60;;;1.50;;
12976;SDS011;6553;48.412;9.514;2023-05-07T00:39:21;1.85;;;1.60;;
12976;SDS011;6553;48.412;9.514;2023-05-07T00:41:47;1.27;;;1.17;;
12976;SDS011;6553;48.412;9.514;2023-05-07T00:44:13;1.50;;;1.40;;
12976;SDS011;6553;48.412;9.514;2023-05-07T00:46:39;1.23;;;1.23;;
12976;SDS011;6553;48.412;9.514;2023-05-07T00:49:06;1.52;;;1.42;;
12976;SDS011;6553;48.412;9.514;2023-05-07T00:51:32;1.50;;;1.40;;
12976;SDS011;6553;48.412;9.514;2023-05-07T00:53:59;1.30;;;1.20;;
12976;SDS011;6553;48.412;9.514;2023-05-07T00:56:28;1.50;;;1.40;;
12976;SDS011;6553;48.412;9.514;2023-05-07T00:58:54;1.67;;;1.50;;
12976;SDS011;6553;48.412;9.514;2023-05-07T01:01:20;1.40;;;1.30;;
12976;SDS011;6553;48.412;9.514;2023-05-07T01:03:46;1.48;;;1.38;;
12976;SDS011;6553;48.412;9.514;2023-05-07T01:06:12;2.10;;;1.67;;
12976;SDS011;6553;48.412;9.514;2023-05-07T01:08:41;1.20;;;1.10;;
12976;SDS011;6553;48.412;9.514;2023-05-07T01:11:08;1.30;;;1.20;;
12976;SDS011;6553;48.412;9.514;2023-05-07T01:13:35;1.67;;;1.42;;
12976;SDS011;6553;48.412;9.514;2023-05-07T01:16:03;2.15;;;1.35;;
12976;SDS011;6553;48.412;9.514;2023-05-07T01:18:30;1.50;;;1.30;;
12976;SDS011;6553;48.412;9.514;2023-05-07T01:20:56;1.73;;;1.63;;
12976;SDS011;6553;48.412;9.514;2023-05-07T01:23:26;2.08;;;1.35;;
12976;SDS011;6553;48.412;9.514;2023-05-07T01:25:53;1.40;;;1.30;;
12976;SDS011;6553;48.412;9.514;2023-05-07T01:28:22;1.80;;;1.70;;
12976;SDS011;6553;48.412;9.514;2023-05-07T01:30:48;1.27;;;1.20;;
12976;SDS011;6553;48.412;9.514;2023-05-07T01:33:24;1.33;;;1.23;;
12976;SDS011;6553;48.412;9.514;2023-05-07T01:35:56;1.40;;;1.30;;
12976;SDS011;6553;48.412;9.514;2023-05-07T01:38:27;1.60;;;1.50;;
12976;SDS011;6553;48.412;9.514;2023-05-07T01:40:53;1.40;;;1.30;;
12976;SDS011;6553;48.412;9.514;2023-05-07T01:43:20;1.52;;;1.42;;
12976;SDS011;6553;48.412;9.514;2023-05-07T01:45:46;1.40;;;1.30;;
12976;SDS011;6553;48.412;9.514;2023-05-07T01:48:14;1.77;;;1.60;;
12976;SDS011;6553;48.412;9.514;2023-05-07T01:50:41;1.60;;;1.50;;
12976;SDS011;6553;48.412;9.514;2023-05-07T01:53:08;1.88;;;1.77;;
12976;SDS011;6553;48.412;9.514;2023-05-07T01:55:34;1.50;;;1.40;;
12976;SDS011;6553;48.412;9.514;2023-05-07T01:58:02;1.40;;;1.30;;
12976;SDS011;6553;48.412;9.514;2023-05-07T02:00:29;1.60;;;1.48;;
12976;SDS011;6553;48.412;9.514;2023-05-07T02:02:55;1.40;;;1.30;;
12976;SDS011;6553;48.412;9.514;2023-05-07T02:05:30;1.65;;;1.55;;
12976;SDS011;6553;48.412;9.514;2023-05-07T02:08:14;1.40;;;1.30;;
12976;SDS011;6553;48.412;9.514;2023-05-07T02:10:40;1.85;;;1.70;;
12976;SDS011;6553;48.412;9.514;2023-05-07T02:13:06;1.65;;;1.55;;
12976;SDS011;6553;48.412;9.514;2023-05-07T02:15:32;1.60;;;1.50;;
12976;SDS011;6553;48.412;9.514;2023-05-07T02:18:00;1.83;;;1.73;;
12976;SDS011;6553;48.412;9.514;2023-05-07T02:20:29;1.50;;;1.40;;
12976;SDS011;6553;48.412;9.514;2023-05-07T02:22:55;1.40;;;1.30;;
12976;SDS011;6553;48.412;9.514;2023-05-07T02:25:21;1.40;;;1.30;;
12976;SDS011;6553;48.412;9.514;2023-05-07T02:27:47;2.20;;;1.70;;
12976;SDS011;6553;48.412;9.514;2023-05-07T02:30:14;2.05;;;1.60;;
12976;SDS011;6553;48.412;9.514;2023-05-07T02:32:40;1.75;;;1.48;;
12976;SDS011;6553;48.412;9.514;2023-05-07T02:35:06;2.15;;;1.50;;
12976;SDS011;6553;48.412;9.514;2023-05-07T02:37:32;1.70;;;1.45;;
12976;SDS011;6553;48.412;9.514;2023-05-07T02:39:58;1.65;;;1.55;;
12976;SDS011;6553;48.412;9.514;2023-05-07T02:42:24;1.88;;;1.77;;
12976;SDS011;6553;48.412;9.514;2023-05-07T02:44:50;1.65;;;1.55;;
12976;SDS011;6553;48.412;9.514;2023-05-07T02:47:16;1.70;;;1.40;;
12976;SDS011;6553;48.412;9.514;2023-05-07T02:49:43;1.85;;;1.73;;
12976;SDS011;6553;48.412;9.514;2023-05-07T02:52:09;1.65;;;1.55;;
12976;SDS011;6553;48.412;9.514;2023-05-07T02:54:35;1.50;;;1.40;;
12976;SDS011;6553;48.412;9.514;2023-05-07T02:57:00;1.50;;;1.40;;
12976;SDS011;6553;48.412;9.514;2023-05-07T02:59:27;1.95;;;1.85;;
12976;SDS011;6553;48.412;9.514;2023-05-07T03:01:53;1.73;;;1.63;;
12976;SDS011;6553;48.412;9.514;2023-05-07T03:04:19;1.55;;;1.45;;
12976;SDS011;6553;48.412;9.514;2023-05-07T03:06:46;1.60;;;1.50;;
12976;SDS011;6553;48.412;9.514;2023-05-07T03:09:11;1.80;;;1.70;;
12976;SDS011;6553;48.412;9.514;2023-05-07T03:11:37;2.28;;;1.80;;
12976;SDS011;6553;48.412;9.514;2023-05-07T03:14:03;2.25;;;1.63;;
12976;SDS011;6553;48.412;9.514;2023-05-07T03:16:30;2.28;;;1.48;;
12976;SDS011;6553;48.412;9.514;2023-05-07T03:18:56;1.40;;;1.30;;
12976;SDS011;6553;48.412;9.514;2023-05-07T03:21:21;1.45;;;1.35;;
12976;SDS011;6553;48.412;9.514;2023-05-07T03:23:47;1.92;;;1.80;;
12976;SDS011;6553;48.412;9.514;2023-05-07T03:26:13;1.73;;;1.63;;
12976;SDS011;6553;48.412;9.514;2023-05-07T03:28:39;1.88;;;1.77;;
12976;SDS011;6553;48.412;9.514;2023-05-07T03:31:09;1.70;;;1.60;;
12976;SDS011;6553;48.412;9.514;2023-05-07T03:33:38;1.73;;;1.63;;
12976;SDS011;6553;48.412;9.514;2023-05-07T03:36:19;1.75;;;1.65;;
12976;SDS011;6553;48.412;9.514;2023-05-07T03:38:46;1.92;;;1.77;;
12976;SDS011;6553;48.412;9.514;2023-05-07T03:41:16;1.52;;;1.42;;
12976;SDS011;6553;48.412;9.514;2023-05-07T03:43:43;1.80;;;1.70;;
12976;SDS011;6553;48.412;9.514;2023-05-07T03:46:10;1.75;;;1.65;;
12976;SDS011;6553;48.412;9.514;2023-05-07T03:48:36;1.48;;;1.38;;
12976;SDS011;6553;48.412;9.514;2023-05-07T03:51:03;1.48;;;1.38;;
12976;SDS011;6553;48.412;9.514;2023-05-07T03:53:31;1.80;;;1.70;;
12976;SDS011;6553;48.412;9.514;2023-05-07T03:55:57;1.70;;;1.60;;
12976;SDS011;6553;48.412;9.514;2023-05-07T03:58:23;1.90;;;1.63;;
12976;SDS011;6553;48.412;9.514;2023-05-07T04:00:50;1.65;;;1.55;;
12976;SDS011;6553;48.412;9.514;2023-05-07T04:03:23;1.63;;;1.52;;
12976;SDS011;6553;48.412;9.514;2023-05-07T04:05:50;1.90;;;1.75;;
12976;SDS011;6553;48.412;9.514;2023-05-07T04:08:16;1.80;;;1.70;;
12976;SDS011;6553;48.412;9.514;2023-05-07T04:10:46;1.85;;;1.50;;
12976;SDS011;6553;48.412;9.514;2023-05-07T04:13:12;1.83;;;1.73;;
12976;SDS011;6553;48.412;9.514;2023-05-07T04:15:38;1.98;;;1.75;;
12976;SDS011;6553;48.412;9.514;2023-05-07T04:18:08;2.10;;;1.90;;
12976;SDS011;6553;48.412;9.514;2023-05-07T04:20:35;1.55;;;1.45;;
12976;SDS011;6553;48.412;9.514;2023-05-07T04:23:03;1.60;;;1.50;;
12976;SDS011;6553;48.412;9.514;2023-05-07T04:25:29;1.70;;;1.60;;
12976;SDS011;6553;48.412;9.514;2023-05-07T04:28:02;2.00;;;1.80;;
12976;SDS011;6553;48.412;9.514;2023-05-07T04:30:29;1.60;;;1.50;;
12976;SDS011;6553;48.412;9.514;2023-05-07T04:32:55;1.95;;;1.80;;
12976;SDS011;6553;48.412;9.514;2023-05-07T04:35:22;2.08;;;1.60;;
12976;SDS011;6553;48.412;9.514;2023-05-07T04:37:48;1.40;;;1.30;;
12976;SDS011;6553;48.412;9.514;2023-05-07T04:40:14;1.50;;;1.40;;
12976;SDS011;6553;48.412;9.514;2023-05-07T04:42:41;1.60;;;1.50;;
12976;SDS011;6553;48.412;9.514;2023-05-07T04:45:08;1.60;;;1.50;;
12976;SDS011;6553;48.412;9.514;2023-05-07T04:47:36;1.60;;;1.50;;
12976;SDS011;6553;48.412;9.514;2023-05-07T04:50:02;1.50;;;1.40;;
12976;SDS011;6553;48.412;9.514;2023-05-07T04:52:28;1.90;;;1.80;;
12976;SDS011;6553;48.412;9.514;2023-05-07T04:54:54;1.40;;;1.30;;
12976;SDS011;6553;48.412;9.514;2023-05-07T04:57:20;1.52;;;1.42;;
12976;SDS011;6553;48.412;9.514;2023-05-07T04:59:46;1.77;;;1.42;;
12976;SDS011;6553;48.412;9.514;2023-05-07T05:02:12;1.70;;;1.60;;
12976;SDS011;6553;48.412;9.514;2023-05-07T05:04:38;1.88;;;1.77;;
12976;SDS011;6553;48.412;9.514;2023-05-07T05:07:05;1.67;;;1.58;;
12976;SDS011;6553;48.412;9.514;2023-05-07T05:09:31;1.60;;;1.50;;
12976;SDS011;6553;48.412;9.514;2023-05-07T05:11:57;1.90;;;1.70;;
12976;SDS011;6553;48.412;9.514;2023-05-07T05:14:23;1.55;;;1.45;;
12976;SDS011;6553;48.412;9.514;2023-05-07T05:16:49;1.65;;;1.55;;
12976;SDS011;6553;48.412;9.514;2023-05-07T05:19:15;1.65;;;1.55;;
12976;SDS011;6553;48.412;9.514;2023-05-07T05:21:43;1.52;;;1.42;;
12976;SDS011;6553;48.412;9.514;2023-05-07T05:24:09;1.70;;;1.60;;
12976;SDS011;6553;48.412;9.514;2023-05-07T05:26:35;1.50;;;1.40;;
12976;SDS011;6553;48.412;9.514;2023-05-07T05:29:01;1.52;;;1.42;;
12976;SDS011;6553;48.412;9.514;2023-05-07T05:31:29;2.58;;;1.60;;
12976;SDS011;6553;48.412;9.514;2023-05-07T05:33:55;1.70;;;1.60;;
12976;SDS011;6553;48.412;9.514;2023-05-07T05:36:21;1.50;;;1.40;;
12976;SDS011;6553;48.412;9.514;2023-05-07T05:38:49;1.83;;;1.73;;
12976;SDS011;6553;48.412;9.514;2023-05-07T05:41:15;1.50;;;1.40;;
12976;SDS011;6553;48.412;9.514;2023-05-07T05:43:41;1.70;;;1.60;;
12976;SDS011;6553;48.412;9.514;2023-05-07T05:46:07;1.77;;;1.67;;
12976;SDS011;6553;48.412;9.514;2023-05-07T05:48:34;1.95;;;1.85;;
12976;SDS011;6553;48.412;9.514;2023-05-07T05:51:02;1.65;;;1.55;;
12976;SDS011;6553;48.412;9.514;2023-05-07T05:53:27;1.95;;;1.85;;
12976;SDS011;6553;48.412;9.514;2023-05-07T05:55:53;1.48;;;1.38;;
12976;SDS011;6553;48.412;9.514;2023-05-07T05:58:20;1.77;;;1.65;;
12976;SDS011;6553;48.412;9.514;2023-05-07T06:00:51;1.85;;;1.75;;
12976;SDS011;6553;48.412;9.514;2023-05-07T06:03:20;1.90;;;1.63;;
12976;SDS011;6553;48.412;9.514;2023-05-07T06:05:46;1.92;;;1.70;;
12976;SDS011;6553;48.412;9.514;2023-05-07T06:08:13;1.45;;;1.38;;
12976;SDS011;6553;48.412;9.514;2023-05-07T06:10:39;1.48;;;1.38;;
12976;SDS011;6553;48.412;9.514;2023-05-07T06:13:07;2.28;;;1.80;;
12976;SDS011;6553;48.412;9.514;2023-05-07T06:15:34;1.63;;;1.52;;
12976;SDS011;6553;48.412;9.514;2023-05-07T06:18:05;1.65;;;1.55;;
12976;SDS011;6553;48.412;9.514;2023-05-07T06:20:31;1.50;;;1.40;;
12976;SDS011;6553;48.412;9.514;2023-05-07T06:22:58;1.77;;;1.67;;
12976;SDS011;6553;48.412;9.514;2023-05-07T06:25:24;1.80;;;1.70;;
12976;SDS011;6553;48.412;9.514;2023-05-07T06:27:50;2.38;;;1.90;;
12976;SDS011;6553;48.412;9.514;2023-05-07T06:30:16;1.80;;;1.70;;
12976;SDS011;6553;48.412;9.514;2023-05-07T06:32:42;1.50;;;1.40;;
12976;SDS011;6553;48.412;9.514;2023-05-07T06:35:08;1.55;;;1.40;;
12976;SDS011;6553;48.412;9.514;2023-05-07T06:37:36;1.88;;;1.77;;
12976;SDS011;6553;48.412;9.514;2023-05-07T06:40:08;1.95;;;1.85;;
12976;SDS011;6553;48.412;9.514;2023-05-07T06:42:37;2.08;;;1.85;;
12976;SDS011;6553;48.412;9.514;2023-05-07T06:45:21;1.80;;;1.70;;
12976;SDS011;6553;48.412;9.514;2023-05-07T06:47:47;2.47;;;2.08;;
12976;SDS011;6553;48.412;9.514;2023-05-07T06:50:13;1.95;;;1.85;;
12976;SDS011;6553;48.412;9.514;2023-05-07T06:52:42;2.15;;;1.95;;
12976;SDS011;6553;48.412;9.514;2023-05-07T06:55:08;1.85;;;1.70;;
12976;SDS011;6553;48.412;9.514;2023-05-07T06:57:34;2.33;;;1.70;;
12976;SDS011;6553;48.412;9.514;2023-05-07T07:00:00;2.38;;;1.75;;
12976;SDS011;6553;48.412;9.514;2023-05-07T07:02:26;2.15;;;2.05;;
12976;SDS011;6553;48.412;9.514;2023-05-07T07:04:52;1.73;;;1.60;;
12976;SDS011;6553;48.412;9.514;2023-05-07T07:07:18;1.80;;;1.70;;
12976;SDS011;6553;48.412;9.514;2023-05-07T07:09:46;1.73;;;1.63;;
12976;SDS011;6553;48.412;9.514;2023-05-07T07:12:15;1.98;;;1.88;;
12976;SDS011;6553;48.412;9.514;2023-05-07T07:14:41;1.90;;;1.80;;
12976;SDS011;6553;48.412;9.514;2023-05-07T07:17:07;1.80;;;1.70;;
12976;SDS011;6553;48.412;9.514;2023-05-07T07:19:33;2.58;;;2.22;;
12976;SDS011;6553;48.412;9.514;2023-05-07T07:22:01;2.55;;;1.83;;
12976;SDS011;6553;48.412;9.514;2023-05-07T07:24:27;1.88;;;1.77;;
12976;SDS011;6553;48.412;9.514;2023-05-07T07:26:56;2.08;;;1.98;;
12976;SDS011;6553;48.412;9.514;2023-05-07T07:29:24;2.15;;;1.85;;
12976;SDS011;6553;48.412;9.514;2023-05-07T07:31:51;2.25;;;2.15;;
12976;SDS011;6553;48.412;9.514;2023-05-07T07:34:19;2.00;;;1.77;;
12976;SDS011;6553;48.412;9.514;2023-05-07T07:36:44;2.22;;;2.03;;
12976;SDS011;6553;48.412;9.514;2023-05-07T07:39:10;3.45;;;2.25;;
12976;SDS011;6553;48.412;9.514;2023-05-07T07:41:36;2.40;;;2.20;;
12976;SDS011;6553;48.412;9.514;2023-05-07T07:44:03;2.22;;;2.13;;
12976;SDS011;6553;48.412;9.514;2023-05-07T07:46:33;2.53;;;2.15;;
12976;SDS011;6553;48.412;9.514;2023-05-07T07:49:00;2.53;;;2.33;;
12976;SDS011;6553;48.412;9.514;2023-05-07T07:51:26;2.00;;;1.90;;
12976;SDS011;6553;48.412;9.514;2023-05-07T07:53:52;2.22;;;2.03;;
12976;SDS011;6553;48.412;9.514;2023-05-07T07:56:18;2.45;;;2.00;;
12976;SDS011;6553;48.412;9.514;2023-05-07T07:58:45;2.50;;;2.00;;
12976;SDS011;6553;48.412;9.514;2023-05-07T08:01:11;2.13;;;1.92;;
12976;SDS011;6553;48.412;9.514;2023-05-07T08:03:38;2.08;;;1.85;;
12976;SDS011;6553;48.412;9.514;2023-05-07T08:06:04;1.80;;;1.70;;
12976;SDS011;6553;48.412;9.514;2023-05-07T08:08:32;2.10;;;1.80;;
12976;SDS011;6553;48.412;9.514;2023-05-07T08:10:58;1.80;;;1.70;;
12976;SDS011;6553;48.412;9.514;2023-05-07T08:13:29;2.28;;;2.03;;
12976;SDS011;6553;48.412;9.514;2023-05-07T08:15:55;2.20;;;2.00;;
12976;SDS011;6553;48.412;9.514;2023-05-07T08:18:21;1.75;;;1.65;;
12976;SDS011;6553;48.412;9.514;2023-05-07T08:20:48;2.05;;;1.90;;
12976;SDS011;6553;48.412;9.514;2023-05-07T08:23:19;1.95;;;1.63;;
12976;SDS011;6553;48.412;9.514;2023-05-07T08:25:45;1.75;;;1.65;;
12976;SDS011;6553;48.412;9.514;2023-05-07T08:28:13;1.98;;;1.77;;
12976;SDS011;6553;48.412;9.514;2023-05-07T08:30:39;2.05;;;1.90;;
12976;SDS011;6553;48.412;9.514;2023-05-07T08:33:05;2.97;;;1.63;;
12976;SDS011;6553;48.412;9.514;2023-05-07T08:35:33;2.45;;;1.92;;
12976;SDS011;6553;48.412;9.514;2023-05-07T08:37:59;2.45;;;1.75;;
12976;SDS011;6553;48.412;9.514;2023-05-07T08:40:25;2.40;;;1.80;;
12976;SDS011;6553;48.412;9.514;2023-05-07T08:42:53;3.88;;;2.00;;
12976;SDS011;6553;48.412;9.514;2023-05-07T08:45:21;2.80;;;1.80;;
12976;SDS011;6553;48.412;9.514;2023-05-07T08:47:51;2.20;;;2.00;;
12976;SDS011;6553;48.412;9.514;2023-05-07T08:50:27;3.15;;;1.88;;
12976;SDS011;6553;48.412;9.514;2023-05-07T08:52:53;2.10;;;1.90;;
12976;SDS011;6553;48.412;9.514;2023-05-07T08:55:21;2.50;;;2.10;;
12976;SDS011;6553;48.412;9.514;2023-05-07T08:57:49;2.15;;;1.95;;
12976;SDS011;6553;48.412;9.514;2023-05-07T09:00:18;3.05;;;2.03;;
12976;SDS011;6553;48.412;9.514;2023-05-07T09:02:48;2.67;;;1.73;;
12976;SDS011;6553;48.412;9.514;2023-05-07T09:05:14;2.28;;;2.03;;
12976;SDS011;6553;48.412;9.514;2023-05-07T09:07:40;3.40;;;1.85;;
12976;SDS011;6553;48.412;9.514;2023-05-07T09:10:07;2.40;;;2.00;;
12976;SDS011;6553;48.412;9.514;2023-05-07T09:12:35;6.57;;;1.92;;
12976;SDS011;6553;48.412;9.514;2023-05-07T09:15:03;2.90;;;1.83;;
12976;SDS011;6553;48.412;9.514;2023-05-07T09:17:31;2.00;;;1.75;;
12976;SDS011;6553;48.412;9.514;2023-05-07T09:20:02;2.83;;;1.75;;
12976;SDS011;6553;48.412;9.514;2023-05-07T09:22:35;1.92;;;1.73;;
12976;SDS011;6553;48.412;9.514;2023-05-07T09:25:06;4.28;;;2.22;;
12976;SDS011;6553;48.412;9.514;2023-05-07T09:27:35;3.25;;;1.90;;
12976;SDS011;6553;48.412;9.514;2023-05-07T09:30:08;2.75;;;1.77;;
12976;SDS011;6553;48.412;9.514;2023-05-07T09:32:36;2.70;;;1.70;;
12976;SDS011;6553;48.412;9.514;2023-05-07T09:35:17;2.28;;;2.00;;
12976;SDS011;6553;48.412;9.514;2023-05-07T09:37:47;2.20;;;1.83;;
12976;SDS011;6553;48.412;9.514;2023-05-07T09:40:20;2.08;;;1.60;;
12976;SDS011;6553;48.412;9.514;2023-05-07T09:42:54;2.13;;;1.70;;
12976;SDS011;6553;48.412;9.514;2023-05-07T09:45:25;3.05;;;1.77;;
12976;SDS011;6553;48.412;9.514;2023-05-07T09:47:55;3.00;;;2.10;;
12976;SDS011;6553;48.412;9.514;2023-05-07T09:50:28;1.92;;;1.83;;
12976;SDS011;6553;48.412;9.514;2023-05-07T09:53:01;1.77;;;1.52;;
12976;SDS011;6553;48.412;9.514;2023-05-07T09:55:30;2.28;;;2.08;;
12976;SDS011;6553;48.412;9.514;2023-05-07T09:57:56;1.95;;;1.85;;
12976;SDS011;6553;48.412;9.514;2023-05-07T10:00:26;3.17;;;1.77;;
12976;SDS011;6553;48.412;9.514;2023-05-07T10:03:02;2.00;;;1.90;;
12976;SDS011;6553;48.412;9.514;2023-05-07T10:05:42;7.03;;;2.83;;
12976;SDS011;6553;48.412;9.514;2023-05-07T10:08:09;5.40;;;2.42;;
12976;SDS011;6553;48.412;9.514;2023-05-07T10:10:38;3.97;;;2.15;;
12976;SDS011;6553;48.412;9.514;2023-05-07T10:13:08;7.18;;;2.35;;
12976;SDS011;6553;48.412;9.514;2023-05-07T10:15:37;4.65;;;2.63;;
12976;SDS011;6553;48.412;9.514;2023-05-07T10:18:04;7.45;;;2.58;;
12976;SDS011;6553;48.412;9.514;2023-05-07T10:20:33;10.35;;;2.60;;
12976;SDS011;6553;48.412;9.514;2023-05-07T10:23:03;4.38;;;2.22;;
12976;SDS011;6553;48.412;9.514;2023-05-07T10:25:37;5.95;;;2.85;;
12976;SDS011;6553;48.412;9.514;2023-05-07T10:28:15;4.35;;;2.35;;
12976;SDS011;6553;48.412;9.514;2023-05-07T10:31:01;5.18;;;2.15;;
12976;SDS011;6553;48.412;9.514;2023-05-07T10:33:45;4.68;;;2.13;;
12976;SDS011;6553;48.412;9.514;2023-05-07T10:36:17;4.22;;;2.15;;
12976;SDS011;6553;48.412;9.514;2023-05-07T10:38:46;3.58;;;2.40;;
12976;SDS011;6553;48.412;9.514;2023-05-07T10:41:12;3.90;;;2.05;;
12976;SDS011;6553;48.412;9.514;2023-05-07T10:43:42;4.28;;;1.88;;
12976;SDS011;6553;48.412;9.514;2023-05-07T10:46:18;4.30;;;1.98;;
12976;SDS011;6553;48.412;9.514;2023-05-07T10:51:38;3.58;;;2.15;;
12976;SDS011;6553;48.412;9.514;2023-05-07T10:56:47;5.03;;;2.15;;
12976;SDS011;6553;48.412;9.514;2023-05-07T11:01:51;3.92;;;2.13;;
12976;SDS011;6553;48.412;9.514;2023-05-07T11:04:31;3.33;;;2.17;;
12976;SDS011;6553;48.412;9.514;2023-05-07T11:07:28;5.00;;;2.33;;
12976;SDS011;6553;48.412;9.514;2023-05-07T11:10:03;3.25;;;1.88;;
12976;SDS011;6553;48.412;9.514;2023-05-07T11:15:13;2.92;;;2.00;;
12976;SDS011;6553;48.412;9.514;2023-05-07T11:17:57;2.60;;;1.90;;
12976;SDS011;6553;48.412;9.514;2023-05-07T11:20:48;3.10;;;2.05;;
12976;SDS011;6553;48.412;9.514;2023-05-07T11:26:16;4.40;;;2.10;;
12976;SDS011;6553;48.412;9.514;2023-05-07T11:28:43;7.15;;;2.30;;
12976;SDS011;6553;48.412;9.514;2023-05-07T11:31:10;3.67;;;1.92;;
12976;SDS011;6553;48.412;9.514;2023-05-07T11:33:37;4.30;;;2.10;;
12976;SDS011;6553;48.412;9.514;2023-05-07T11:36:07;2.33;;;1.92;;
12976;SDS011;6553;48.412;9.514;2023-05-07T11:38:39;3.72;;;2.20;;
12976;SDS011;6553;48.412;9.514;2023-05-07T11:41:05;2.58;;;1.90;;
12976;SDS011;6553;48.412;9.514;2023-05-07T11:43:32;2.53;;;1.90;;
12976;SDS011;6553;48.412;9.514;2023-05-07T11:46:10;2.85;;;2.45;;
12976;SDS011;6553;48.412;9.514;2023-05-07T11:48:37;4.32;;;2.03;;
12976;SDS011;6553;48.412;9.514;2023-05-07T11:51:04;2.58;;;1.92;;
12976;SDS011;6553;48.412;9.514;2023-05-07T11:53:35;2.60;;;2.08;;
12976;SDS011;6553;48.412;9.514;2023-05-07T11:56:09;2.00;;;1.80;;
12976;SDS011;6553;48.412;9.514;2023-05-07T11:58:39;1.95;;;1.85;;
12976;SDS011;6553;48.412;9.514;2023-05-07T12:01:09;3.35;;;1.92;;
12976;SDS011;6553;48.412;9.514;2023-05-07T12:03:39;2.47;;;2.20;;
12976;SDS011;6553;48.412;9.514;2023-05-07T12:06:07;2.63;;;2.20;;
12976;SDS011;6553;48.412;9.514;2023-05-07T12:08:38;2.00;;;1.90;;
12976;SDS011;6553;48.412;9.514;2023-05-07T12:11:10;1.98;;;1.83;;
12976;SDS011;6553;48.412;9.514;2023-05-07T12:13:40;3.63;;;1.90;;
12976;SDS011;6553;48.412;9.514;2023-05-07T12:16:06;2.13;;;2.00;;
12976;SDS011;6553;48.412;9.514;2023-05-07T12:18:33;2.55;;;2.03;;
12976;SDS011;6553;48.412;9.514;2023-05-07T12:21:01;2.85;;;1.73;;
12976;SDS011;6553;48.412;9.514;2023-05-07T12:23:29;2.45;;;2.13;;
12976;SDS011;6553;48.412;9.514;2023-05-07T12:25:55;2.65;;;2.45;;
12976;SDS011;6553;48.412;9.514;2023-05-07T12:28:21;2.70;;;2.40;;
12976;SDS011;6553;48.412;9.514;2023-05-07T12:30:47;2.78;;;2.05;;
12976;SDS011;6553;48.412;9.514;2023-05-07T12:33:17;3.25;;;1.90;;
12976;SDS011;6553;48.412;9.514;2023-05-07T12:35:48;3.00;;;2.20;;
12976;SDS011;6553;48.412;9.514;2023-05-07T12:38:15;3.15;;;2.28;;
12976;SDS011;6553;48.412;9.514;2023-05-07T12:43:19;2.30;;;2.15;;
12976;SDS011;6553;48.412;9.514;2023-05-07T12:45:49;2.28;;;2.08;;
12976;SDS011;6553;48.412;9.514;2023-05-07T12:48:17;2.60;;;2.40;;
12976;SDS011;6553;48.412;9.514;2023-05-07T12:50:44;2.33;;;2.13;;
12976;SDS011;6553;48.412;9.514;2023-05-07T12:53:13;2.40;;;2.30;;
12976;SDS011;6553;48.412;9.514;2023-05-07T12:55:43;2.30;;;2.10;;
12976;SDS011;6553;48.412;9.514;2023-05-07T12:58:15;2.97;;;2.22;;
12976;SDS011;6553;48.412;9.514;2023-05-07T13:00:42;2.58;;;2.20;;
12976;SDS011;6553;48.412;9.514;2023-05-07T13:03:09;2.30;;;2.10;;
12976;SDS011;6553;48.412;9.514;2023-05-07T13:05:36;2.95;;;2.22;;
12976;SDS011;6553;48.412;9.514;2023-05-07T13:08:01;2.30;;;2.10;;
12976;SDS011;6553;48.412;9.514;2023-05-07T13:10:27;2.55;;;1.98;;
12976;SDS011;6553;48.412;9.514;2023-05-07T13:12:54;2.15;;;1.95;;
12976;SDS011;6553;48.412;9.514;2023-05-07T13:15:20;2.63;;;2.42;;
12976;SDS011;6553;48.412;9.514;2023-05-07T13:17:46;3.45;;;2.20;;
12976;SDS011;6553;48.412;9.514;2023-05-07T13:20:12;2.47;;;2.28;;
12976;SDS011;6553;48.412;9.514;2023-05-07T13:22:39;3.05;;;2.20;;
12976;SDS011;6553;48.412;9.514;2023-05-07T13:25:05;2.50;;;2.30;;
12976;SDS011;6553;48.412;9.514;2023-05-07T13:27:31;3.42;;;2.70;;
12976;SDS011;6553;48.412;9.514;2023-05-07T13:30:00;2.63;;;2.42;;
12976;SDS011;6553;48.412;9.514;2023-05-07T13:32:26;3.40;;;2.50;;
12976;SDS011;6553;48.412;9.514;2023-05-07T13:34:52;2.30;;;2.10;;
12976;SDS011;6553;48.412;9.514;2023-05-07T13:37:17;2.38;;;2.28;;
12976;SDS011;6553;48.412;9.514;2023-05-07T13:39:43;2.67;;;2.40;;
12976;SDS011;6553;48.412;9.514;2023-05-07T13:42:10;2.95;;;2.75;;
12976;SDS011;6553;48.412;9.514;2023-05-07T13:44:36;2.67;;;2.40;;
12976;SDS011;6553;48.412;9.514;2023-05-07T13:47:01;2.40;;;2.20;;
12976;SDS011;6553;48.412;9.514;2023-05-07T13:49:27;2.72;;;2.53;;
12976;SDS011;6553;48.412;9.514;2023-05-07T13:51:53;2.63;;;2.42;;
12976;SDS011;6553;48.412;9.514;2023-05-07T13:54:19;4.28;;;2.53;;
12976;SDS011;6553;48.412;9.514;2023-05-07T13:56:44;3.78;;;2.50;;
12976;SDS011;6553;48.412;9.514;2023-05-07T13:59:10;4.97;;;2.80;;
12976;SDS011;6553;48.412;9.514;2023-05-07T14:01:37;2.78;;;2.58;;
12976;SDS011;6553;48.412;9.514;2023-05-07T14:04:03;2.58;;;2.38;;
12976;SDS011;6553;48.412;9.514;2023-05-07T14:06:29;2.40;;;2.20;;
12976;SDS011;6553;48.412;9.514;2023-05-07T14:08:55;2.63;;;2.45;;
12976;SDS011;6553;48.412;9.514;2023-05-07T14:11:23;2.15;;;1.95;;
12976;SDS011;6553;48.412;9.514;2023-05-07T14:13:48;3.42;;;2.25;;
12976;SDS011;6553;48.412;9.514;2023-05-07T14:16:14;3.42;;;2.15;;
12976;SDS011;6553;48.412;9.514;2023-05-07T14:18:40;2.85;;;2.50;;
12976;SDS011;6553;48.412;9.514;2023-05-07T14:21:05;2.50;;;2.28;;
12976;SDS011;6553;48.412;9.514;2023-05-07T14:23:32;2.60;;;2.40;;
12976;SDS011;6553;48.412;9.514;2023-05-07T14:25:58;2.33;;;2.13;;
12976;SDS011;6553;48.412;9.514;2023-05-07T14:28:23;1.95;;;1.83;;
12976;SDS011;6553;48.412;9.514;2023-05-07T14:30:49;2.45;;;2.25;;
12976;SDS011;6553;48.412;9.514;2023-05-07T14:33:15;2.33;;;2.00;;
12976;SDS011;6553;48.412;9.514;2023-05-07T14:35:41;2.10;;;2.00;;
12976;SDS011;6553;48.412;9.514;2023-05-07T14:38:10;2.42;;;2.15;;
12976;SDS011;6553;48.412;9.514;2023-05-07T14:40:35;2.50;;;2.30;;
12976;SDS011;6553;48.412;9.514;2023-05-07T14:43:01;2.67;;;2.05;;
12976;SDS011;6553;48.412;9.514;2023-05-07T14:45:27;1.95;;;1.77;;
12976;SDS011;6553;48.412;9.514;2023-05-07T14:47:53;2.33;;;2.00;;
12976;SDS011;6553;48.412;9.514;2023-05-07T14:50:18;2.78;;;1.88;;
12976;SDS011;6553;48.412;9.514;2023-05-07T14:52:44;2.72;;;2.20;;
12976;SDS011;6553;48.412;9.514;2023-05-07T14:55:10;3.10;;;1.95;;
12976;SDS011;6553;48.412;9.514;2023-05-07T14:57:37;2.58;;;1.95;;
12976;SDS011;6553;48.412;9.514;2023-05-07T15:00:03;2.33;;;2.13;;
12976;SDS011;6553;48.412;9.514;2023-05-07T15:02:29;3.03;;;2.08;;
12976;SDS011;6553;48.412;9.514;2023-05-07T15:04:55;2.83;;;2.13;;
12976;SDS011;6553;48.412;9.514;2023-05-07T15:07:21;3.55;;;2.10;;
12976;SDS011;6553;48.412;9.514;2023-05-07T15:09:47;2.47;;;1.88;;
12976;SDS011;6553;48.412;9.514;2023-05-07T15:12:13;2.00;;;1.80;;
12976;SDS011;6553;48.412;9.514;2023-05-07T15:14:39;2.85;;;2.08;;
12976;SDS011;6553;48.412;9.514;2023-05-07T15:17:05;1.92;;;1.83;;
12976;SDS011;6553;48.412;9.514;2023-05-07T15:19:30;2.10;;;1.83;;